Latest Weather Observations for Merimbula

IDN60801

Issued at 11:35 am EST Sunday 21 September 2014 (issued every 30 minutes, with the page automatically refreshed every 10 minutes)

About weather observations | Map of weather stations | Latest weather observations for NSW | Other Formats
Station Details ID: 069147 Name: MERIMBULA AIRPORT AWS Lat: -36.91 Lon: 149.90 Height: 1.5 m
Data from the previous 72 hours. | See also: Recent months at Merimbula
Date/Time
EST
Temp
°C
App
Temp
°C
Dew
Point
Rel
Hum
%
Delta-T
°C
Wind Press
QNH
hPa
Press
MSL
hPa
Rain
since 9 am
mm
Dir
 
Spd
km/h
Gust
km/h
Spd
kts
Gust
kts
21/11:30am 16.8 12.7 6.3 50 5.1 E 17 20 9 11 1029.4 1029.4 0.0
21/11:00am 17.4 14.1 4.4 42 6.1 W 11 17 6 9 1029.5 1029.5 0.0
21/10:30am 17.2 14.0 4.9 44 5.9 W 11 24 6 13 1029.8 1029.8 0.0
21/10:00am 16.4 12.4 5.1 47 5.3 W 15 20 8 11 1029.9 1029.9 0.0
21/09:30am 15.4 11.0 4.8 49 5.0 W 17 26 9 14 1030.2 1030.2 0.0
21/09:00am 14.6 11.0 4.9 52 4.5 W 13 20 7 11 1030.6 1030.6 0.0
21/08:30am 13.5 10.6 4.9 56 4.0 NW 9 15 5 8 1030.4 1030.4 0.0
21/08:00am 12.5 9.0 5.4 62 3.3 W 13 19 7 10 1030.5 1030.5 0.0
21/07:30am 10.0 7.1 6.3 78 1.7 WNW 11 20 6 11 1030.4 1030.4 0.0
21/07:00am 7.1 6.3 6.4 95 0.3 CALM 0 0 0 0 1030.3 1030.3 0.0
21/06:30am 4.8 2.1 3.9 94 0.4 NW 7 9 4 5 1030.0 1030.0 0.0
21/06:00am 5.1 2.1 4.1 93 0.4 SSW 9 11 5 6 1029.6 1029.6 0.0
21/05:30am 5.4 2.5 4.7 95 0.3 SSW 9 11 5 6 1028.9 1028.9 0.0
21/05:00am 4.9 2.5 4.2 95 0.3 SSW 6 13 3 7 1028.4 1028.4 0.0
21/04:30am 4.8 3.5 3.9 94 0.4 CALM 0 0 0 0 1028.0 1028.0 0.0
21/04:00am 4.7 3.3 3.7 93 0.4 CALM 0 0 0 0 1027.7 1027.7 0.0
21/03:30am 5.2 3.9 4.2 93 0.4 CALM 0 0 0 0 1027.8 1027.8 0.0
21/03:00am 5.1 3.8 3.9 92 0.5 CALM 0 0 0 0 1027.7 1027.7 0.0
21/02:30am 5.3 2.8 3.6 89 0.7 W 6 7 3 4 1027.8 1027.8 0.0
21/02:00am 6.7 5.6 5.0 89 0.7 CALM 0 0 0 0 1028.2 1028.2 0.0
21/01:30am 8.0 5.2 6.8 92 0.6 NW 11 15 6 8 1028.3 1028.3 0.0
21/01:00am 7.3 4.4 6.6 95 0.3 NW 11 17 6 9 1028.5 1028.5 0.0
21/12:30am 6.0 4.8 4.8 92 0.5 CALM 0 0 0 0 1028.6 1028.6 0.0
21/12:00am 6.6 5.6 5.6 93 0.4 SW 0 0 0 0 1028.7 1028.7 0.0
 
Date/Time
EST
Temp
°C
App
Temp
°C
Dew
Point
Rel
Hum
%
Delta-T
°C
Wind Press
QNH
hPa
Press
MSL
hPa
Rain
since 9 am
mm
Dir
 
Spd
km/h
Gust
km/h
Spd
kts
Gust
kts
20/11:30pm 6.5 5.4 5.0 90 0.7 CALM 0 0 0 0 1028.8 1028.8 0.0
20/11:00pm 7.5 6.5 5.8 89 0.8 CALM 0 0 0 0 1029.0 1029.0 0.0
20/10:30pm 8.7 6.0 7.2 90 0.7 NNW 11 13 6 7 1029.0 1029.0 0.0
20/10:00pm 8.3 7.0 6.1 86 1.0 NNW 2 7 1 4 1028.8 1028.8 0.0
20/09:30pm 9.2 6.6 5.9 80 1.5 S 9 11 5 6 1028.6 1028.6 0.0
20/09:00pm 10.2 7.7 6.5 78 1.7 S 9 11 5 6 1028.4 1028.4 0.0
20/08:30pm 10.7 8.3 6.8 77 1.8 SSW 9 13 5 7 1028.2 1028.2 0.0
20/08:00pm 10.8 7.6 6.9 77 1.8 S 13 17 7 9 1027.9 1027.9 0.0
20/07:30pm 11.8 9.0 6.9 72 2.3 SSW 11 13 6 7 1027.7 1027.7 0.0
20/07:00pm 12.4 10.0 6.9 69 2.6 SSW 9 17 5 9 1027.3 1027.3 0.0
20/06:30pm 13.2 10.4 7.0 66 3.0 S 11 17 6 9 1026.8 1026.8 0.0
20/06:00pm 13.9 11.0 6.7 62 3.5 S 11 17 6 9 1026.2 1026.2 0.0
20/05:30pm 15.0 11.4 6.8 58 4.0 S 15 22 8 12 1025.5 1025.5 0.0
20/05:00pm 16.0 11.6 6.7 54 4.5 S 19 26 10 14 1025.1 1025.1 0.0
20/04:30pm 16.7 12.7 6.8 52 4.9 S 17 26 9 14 1024.7 1024.7 0.0
20/04:00pm 18.0 14.0 6.8 48 5.5 SSW 17 26 9 14 1024.4 1024.4 0.0
20/03:30pm 17.8 13.2 6.7 48 5.5 S 20 32 11 17 1024.2 1024.2 0.0
20/03:00pm 17.6 12.6 6.5 48 5.5 SSW 22 35 12 19 1024.1 1024.1 0.0
20/02:30pm 17.7 14.3 5.9 46 5.8 SSW 13 20 7 11 1023.8 1023.8 0.0
20/02:00pm 18.8 14.5 5.3 41 6.5 SSW 17 28 9 15 1023.7 1023.7 0.0
20/01:30pm 19.5 15.1 4.8 38 7.1 SW 17 28 9 15 1023.8 1023.8 0.0
20/01:00pm 19.9 15.4 5.9 40 6.9 SW 19 32 10 17 1023.8 1023.8 0.0
20/12:30pm 19.0 14.8 5.8 42 6.5 WSW 17 30 9 16 1024.0 1024.0 0.0
20/12:00pm 18.4 13.6 4.6 40 6.6 WSW 19 33 10 18 1024.1 1024.1 0.0
20/11:30am 16.7 12.0 5.3 47 5.5 SSW 19 28 10 15 1024.4 1024.4 0.0
20/11:00am 17.3 12.4 4.3 42 6.1 SSW 19 26 10 14 1024.4 1024.4 0.0
20/10:30am 17.5 13.2 5.1 44 5.9 SSW 17 26 9 14 1024.4 1024.4 0.0
20/10:00am 17.7 13.3 5.0 43 6.1 WSW 17 28 9 15 1024.4 1024.4 0.0
20/09:30am 16.7 12.7 4.7 45 5.7 WSW 15 33 8 18 1024.5 1024.5 0.0
20/09:00am 15.7 10.9 4.4 47 5.2 SW 19 28 10 15 1024.5 1024.5 0.0
20/08:30am 15.2 11.0 3.7 46 5.3 SW 15 26 8 14 1024.3 1024.3 0.0
20/08:00am 14.4 11.4 4.1 50 4.7 W 9 17 5 9 1024.0 1024.0 0.0
20/07:30am 13.3 9.5 3.7 52 4.3 WNW 13 20 7 11 1024.0 1024.0 0.0
20/07:00am 11.9 8.1 3.7 57 3.6 WNW 13 20 7 11 1023.8 1023.8 0.0
20/06:30am 10.2 6.4 4.1 66 2.7 WNW 13 20 7 11 1023.5 1023.5 0.0
20/06:00am 8.7 4.9 4.1 73 2.0 WNW 13 20 7 11 1023.2 1023.2 0.0
20/05:30am 8.2 4.4 4.0 75 1.8 WNW 13 19 7 10 1023.0 1023.0 0.0
20/05:00am 6.7 3.3 4.2 84 1.1 WNW 11 15 6 8 1022.8 1022.8 0.0
20/04:30am 6.4 5.0 5.4 93 0.4 N 2 9 1 5 1022.5 1022.5 0.0
20/04:00am 5.2 2.7 4.0 92 0.5 WNW 6 13 3 7 1022.3 1022.3 0.0
20/03:30am 5.5 4.2 4.3 92 0.5 CALM 0 0 0 0 1022.1 1022.1 0.0
20/03:00am 5.8 4.7 4.9 94 0.4 CALM 0 0 0 0 1022.1 1022.1 0.0
20/02:30am 5.0 3.7 4.0 93 0.4 CALM 0 0 0 0 1022.0 1022.0 0.0
20/02:00am 5.0 3.7 4.1 94 0.4 CALM 0 0 0 0 1021.8 1021.8 0.0
20/01:30am 5.2 3.9 4.3 94 0.4 CALM 0 0 0 0 1021.8 1021.8 0.0
20/01:00am 5.7 4.5 4.7 93 0.4 CALM 0 0 0 0 1021.8 1021.8 0.0
20/12:30am 5.7 4.5 4.5 92 0.5 CALM 0 6 0 3 1021.5 1021.5 0.0
20/12:00am 6.3 5.2 5.1 92 0.5 CALM 0 0 0 0 1021.4 1021.4 0.0
 
Date/Time
EST
Temp
°C
App
Temp
°C
Dew
Point
Rel
Hum
%
Delta-T
°C
Wind Press
QNH
hPa
Press
MSL
hPa
Rain
since 9 am
mm
Dir
 
Spd
km/h
Gust
km/h
Spd
kts
Gust
kts
19/11:30pm 6.4 4.1 5.0 91 0.6 W 6 9 3 5 1021.2 1021.2 0.0
19/11:00pm 6.3 5.2 4.9 91 0.6 CALM 0 0 0 0 1021.3 1021.3 0.0
19/10:30pm 7.0 6.0 5.6 91 0.6 CALM 0 0 0 0 1021.3 1021.3 0.0
19/10:00pm 6.7 5.6 5.0 89 0.7 CALM 0 0 0 0 1021.3 1021.3 0.0
19/09:30pm 7.6 6.6 5.4 86 1.0 CALM 0 0 0 0 1021.3 1021.3 0.0
19/09:00pm 8.5 7.5 5.6 82 1.3 CALM 0 7 0 4 1021.3 1021.3 0.0
19/08:30pm 9.6 7.4 6.3 80 1.5 NW 7 11 4 6 1021.2 1021.2 0.0
19/08:00pm 10.2 9.0 6.4 77 1.8 NW 2 11 1 6 1021.2 1021.2 0.0
19/07:30pm 10.1 7.9 5.3 72 2.2 SSW 6 9 3 5 1020.9 1020.9 0.0
19/07:00pm 11.2 9.1 5.7 69 2.5 SW 6 11 3 6 1020.6 1020.6 0.0
19/06:30pm 13.2 10.3 4.4 55 4.0 SW 9 13 5 7 1020.2 1020.2 0.0
19/06:00pm 14.2 10.8 3.9 50 4.7 SW 11 19 6 10 1019.9 1019.9 0.0
19/05:30pm 15.0 11.0 4.7 50 4.8 SSW 15 26 8 14 1019.6 1019.6 0.0
19/05:00pm 16.5 11.7 4.9 46 5.5 SSW 19 28 10 15 1019.3 1019.3 0.0
19/04:30pm 17.2 12.8 4.9 44 5.9 SW 17 28 9 15 1019.0 1019.0 0.0
19/04:00pm 17.6 12.8 4.5 42 6.2 SW 19 28 10 15 1018.7 1018.7 0.0
19/03:30pm 18.0 13.2 4.9 42 6.3 SSW 19 28 10 15 1018.6 1018.6 0.0
19/03:00pm 16.5 11.3 3.6 42 5.9 SW 20 32 11 17 1018.7 1018.7 0.0
19/02:30pm 17.1 12.1 3.4 40 6.3 SW 19 30 10 16 1018.7 1018.7 0.0
19/02:00pm 17.4 12.7 3.3 39 6.5 SW 17 28 9 15 1018.8 1018.8 0.0
19/01:30pm 18.6 14.5 4.4 39 6.8 SW 15 26 8 14 1019.1 1019.1 0.0
19/01:00pm 17.1 13.1 3.1 39 6.4 WSW 13 26 7 14 1019.3 1019.3 0.0
19/12:30pm 17.2 12.2 3.5 40 6.3 SW 19 26 10 14 1019.6 1019.6 0.0
19/12:00pm 17.9 12.9 4.5 41 6.3 W 20 33 11 18 1019.8 1019.8 0.0
19/11:30am 17.1 12.2 4.1 42 6.1 SW 19 28 10 15 1020.2 1020.2 0.0
19/11:00am 17.5 11.9 3.4 39 6.5 W 22 32 12 17 1020.5 1020.5 0.0
19/10:30am 16.9 11.7 3.6 41 6.2 W 20 33 11 18 1020.6 1020.6 0.0
19/10:00am 16.3 11.2 4.0 44 5.7 W 20 35 11 19 1020.8 1020.8 0.0
19/09:30am 15.4 9.8 3.5 45 5.4 WSW 22 35 12 19 1020.8 1020.8 0.0
19/09:00am 14.6 10.1 4.0 49 4.8 W 17 24 9 13 1021.0 1021.0 0.0
19/08:30am 13.7 9.1 3.5 50 4.6 W 17 24 9 13 1021.2 1021.2 0.0
19/08:00am 12.6 7.4 2.7 51 4.3 W 19 26 10 14 1021.0 1021.0 0.0
19/07:30am 11.5 5.7 2.5 54 3.9 W 22 32 12 17 1021.1 1021.1 0.0
19/07:00am 10.4 5.5 2.0 56 3.5 W 17 24 9 13 1021.1 1021.1 0.0
19/06:30am 9.0 4.4 1.7 60 3.0 WNW 15 22 8 12 1021.0 1021.0 0.0
19/06:00am 8.8 4.1 1.2 59 3.1 W 15 26 8 14 1021.0 1021.0 0.0
19/05:30am 8.7 3.7 1.1 59 3.1 W 17 24 9 13 1020.5 1020.5 0.0
19/05:00am 9.0 3.4 1.2 58 3.2 W 20 28 11 15 1020.4 1020.4 0.0
19/04:30am 9.1 3.5 1.3 58 3.2 WSW 20 32 11 17 1020.1 1020.1 0.0
19/04:00am 9.1 4.1 1.3 58 3.2 WSW 17 26 9 14 1020.2 1020.2 0.0
19/03:30am 9.3 3.7 1.2 57 3.3 WSW 20 30 11 16 1019.8 1019.8 0.0
19/03:00am 9.6 4.2 1.3 56 3.4 WSW 19 30 10 16 1019.9 1019.9 0.0
19/02:30am 10.1 4.2 1.7 56 3.5 WSW 22 41 12 22 1020.0 1020.0 0.0
19/02:00am 9.6 4.4 2.5 61 3.0 WSW 19 28 10 15 1020.0 1020.0 0.0
19/01:30am 10.0 5.2 2.6 60 3.2 WSW 17 30 9 16 1020.2 1020.2 0.0
19/01:00am 9.9 5.1 2.7 61 3.1 WSW 17 24 9 13 1020.3 1020.3 0.0
19/12:30am 9.8 5.1 3.1 63 2.9 WSW 17 24 9 13 1020.4 1020.4 0.0
19/12:00am 8.1 4.9 2.8 69 2.2 WSW 9 15 5 8 1020.6 1020.6 0.0
 
Date/Time
EST
Temp
°C
App
Temp
°C
Dew
Point
Rel
Hum
%
Delta-T
°C
Wind Press
QNH
hPa
Press
MSL
hPa
Rain
since 9 am
mm
Dir
 
Spd
km/h
Gust
km/h
Spd
kts
Gust
kts
18/11:30pm 8.4 5.2 3.1 69 2.3 SW 9 11 5 6 1020.6 1020.6 0.0
18/11:00pm 9.8 5.8 3.1 63 2.9 W 13 20 7 11 1020.6 1020.6 0.0
18/10:30pm 8.2 4.3 3.3 71 2.1 WNW 13 17 7 9 1020.7 1020.7 0.0
18/10:00pm 7.3 5.4 3.0 74 1.8 W 2 7 1 4 1020.7 1020.7 0.0
18/09:30pm 8.0 6.4 2.5 68 2.3 CALM 0 0 0 0 1020.6 1020.6 0.0
18/09:00pm 9.1 6.4 2.4 63 2.8 W 6 9 3 5 1020.6 1020.6 0.0
18/08:30pm 10.4 7.1 2.7 59 3.3 W 9 15 5 8 1020.6 1020.6 0.0
18/08:00pm 11.3 6.6 2.9 56 3.6 WSW 17 26 9 14 1020.6 1020.6 0.0
18/07:30pm 11.0 7.8 3.3 59 3.4 WSW 9 15 5 8 1020.4 1020.4 0.0
18/07:00pm 11.6 7.6 3.1 56 3.7 SSW 13 24 7 13 1020.2 1020.2 0.0
18/06:30pm 11.7 8.1 2.7 54 3.9 SW 11 20 6 11 1020.0 1020.0 0.0
18/06:00pm 11.9 8.9 2.1 51 4.2 SW 7 13 4 7 1019.5 1019.5 0.0
18/05:30pm 13.3 10.4 1.3 44 5.1 SW 6 15 3 8 1019.2 1019.2 0.0
18/05:00pm 14.4 9.5 1.7 42 5.5 SW 17 32 9 17 1018.6 1018.6 0.0
18/04:30pm 15.3 10.5 2.5 42 5.7 SSW 17 28 9 15 1018.4 1018.4 0.0
18/04:00pm 15.0 7.5 1.2 39 6.0 SSW 30 41 16 22 1017.9 1017.9 0.0
18/03:30pm 15.2 9.5 2.7 43 5.6 SW 22 41 12 22 1017.5 1017.5 0.0
18/03:00pm 15.2 10.0 2.4 42 5.7 SW 19 28 10 15 1017.2 1017.2 0.0
18/02:30pm 14.9 10.0 1.8 41 5.7 SW 17 30 9 16 1017.2 1017.2 0.0
18/02:00pm 15.6 10.8 2.4 41 5.9 SSW 17 26 9 14 1017.3 1017.3 0.0
18/01:30pm 16.7 11.2 2.0 37 6.6 SW 20 32 11 17 1017.1 1017.1 0.0
18/01:00pm 15.6 10.0 1.3 38 6.2 SW 20 35 11 19 1017.2 1017.2 0.0
18/12:30pm 15.4 11.0 2.6 42 5.7 SW 15 30 8 16 1017.3 1017.3 0.0
18/12:00pm 14.8 8.5 1.7 41 5.7 SW 24 39 13 21 1017.6 1017.6 0.0

Other Formats:

Comma delimited format used in spreadsheet applications
http://www.bom.gov.au/fwo/IDN60801/IDN60801.95929.axf

JavaScript Object Notation format (JSON) in row-major order
http://www.bom.gov.au/fwo/IDN60801/IDN60801.95929.json